Home > Products > Valid Products > TAF

000
FTUS46 KSGX 302300
TAFPSP
TAF
KPSP 302335Z 3100/3124 33014G22KT P6SM SCT100 SCT200
     FM310600 33010KT P6SM SCT200
     FM310700 VRB05KT P6SM SCT200=



000
FTUS46 KSGX 302300
TAFTRM
TAF
KTRM 302335Z 3100/3124 17006KT P6SM SCT200
     FM310300 33012G20KT P6SM SCT200
     FM310700 33009KT P6SM SCT200
     FM311200 33007KT P6SM SCT200=



000
FTUS46 KSGX 302300
TAFSAN
TAF
KSAN 302335Z 3100/0106 29009KT P6SM FEW008 SCT250
     FM310200 VRB04KT P6SM FEW010 SCT200
     FM310900 VRB04KT P6SM BKN010
     FM311400 VRB04KT P6SM SCT015 SCT200
     FM311900 29009KT P6SM SCT200
     FM010100 VRB05KT P6SM SCT200=



000
FTUS46 KSGX 302300
TAFONT
TAF
KONT 302335Z 3100/0106 26012G20KT P6SM SCT200
     FM310400 VRB04KT P6SM SCT200
     FM312000 26012KT P6SM SCT200
     FM010100 VRB05KT P6SM SCT200=



000
FTUS46 KSGX 302300
TAFCRQ
TAF
KCRQ 302335Z 3100/3124 25008KT P6SM SCT200
     FM310100 VRB04KT P6SM FEW008 SCT200
     FM310900 VRB03KT P6SM BKN007
     FM311400 VRB04KT P6SM FEW009 SCT200=



000
FTUS46 KSGX 302300
TAFSNA
TAF
KSNA 302335Z 3100/3124 VRB05KT P6SM FEW010
     FM310900 VRB05KT P6SM BKN010
     FM311400 VRB04KT P6SM FEW009 SCT200
     FM312000 22008KT P6SM FEW010 SCT200=



000
FTUS46 KSGX 302000 CCA
TAFSAN
TAF COR
KSAN 302031Z 3021/3124 29009KT P6SM FEW008 SCT250
     FM310200 VRB04KT P6SM FEW010 SCT200
     FM311000 VRB04KT P6SM BKN010
     FM311500 VRB04KT P6SM SCT015 SCT200
     FM311900 29009KT P6SM SCT200=



000
FTUS46 KSGX 302000 AAA
TAFSAN
TAF AMD
KSAN 302030Z 3021/3124 29009KT P6SM FEW008 SCT250
     FM310200 VRB04KT P6SM FEW010 SCT200
     FM311100 VRB04KT P6SM BKN010
     FM311500 VRB04KT P6SM SCT015 SCT200
     FM311900 29009KT P6SM SCT200=



000
FTUS46 KSGX 301700
TAFONT
TAF
KONT 301720Z 3018/3124 23006KT P6SM SCT250
     FM302000 26012KT P6SM SCT200
     FM310300 VRB04KT P6SM SCT200
     FM312000 26012KT P6SM SCT200=



000
FTUS46 KSGX 301700
TAFSNA
TAF
KSNA 301720Z 3018/3118 VRB04KT P6SM FEW015 SCT200
     FM301900 23008KT P6SM SCT200
     FM310100 VRB04KT P6SM FEW010 SCT200=



000
FTUS46 KSGX 301700
TAFCRQ
TAF
KCRQ 301720Z 3018/3118 26004KT P6SM SCT200
     FM301900 25008KT P6SM SCT200
     FM310100 VRB04KT P6SM FEW008 SCT200
     FM311000 VRB03KT P6SM BKN007
     FM311500 VRB04KT P6SM FEW009 SCT200=



000
FTUS46 KSGX 301700
TAFPSP
TAF
KPSP 301720Z 3018/3118 VRB05KT P6SM SCT200
     FM301900 33010KT P6SM FEW100 SCT200
     FM302100 33014G22KT P6SM SCT100 SCT200
     FM310600 33010KT P6SM SCT200
     FM310700 VRB05KT P6SM SCT200=



000
FTUS46 KSGX 301700
TAFSAN
TAF
KSAN 301720Z 3018/3124 28006KT P6SM FEW008 SCT250
     FM301900 29009KT P6SM SCT250
     FM310200 VRB04KT P6SM FEW010 SCT200
     FM311100 VRB04KT P6SM BKN010
     FM311500 VRB04KT P6SM SCT015 SCT200
     FM311900 29009KT P6SM SCT200=



000
FTUS46 KSGX 301700
TAFTRM
TAF
KTRM 301720Z 3018/3118 32007KT P6SM SCT200
     FM302100 17006KT P6SM SCT200
     FM310300 33012G20KT P6SM SCT200
     FM310700 33009KT P6SM SCT200
     FM311200 33007KT P6SM SCT200=



000
FTUS46 KSGX 301400 AAA
TAFCRQ
TAF AMD
KCRQ 301420Z 3014/3112 VRB03KT P6SM SCT200
     FM301900 25008KT P6SM SCT200
     FM310100 VRB04KT P6SM FEW008 SCT200
     FM310900 VRB03KT P6SM BKN007=



000
FTUS46 KSGX 301400 AAA
TAFSAN
TAF AMD
KSAN 301419Z 3014/3118 VRB04KT P6SM FEW008 SCT200
     FM301900 28009KT P6SM SCT200
     FM310200 VRB04KT P6SM FEW010 SCT200
     FM310900 VRB04KT P6SM OVC010
     FM311500 VRB04KT P6SM SCT015=



000
FTUS46 KSGX 301100
TAFPSP
TAF
KPSP 301123Z 3012/3112 VRB05KT P6SM SCT200
     FM302200 34012G22KT P6SM SCT200
     FM310600 VRB05KT P6SM FEW200=



000
FTUS46 KSGX 301100
TAFTRM
TAF
KTRM 301123Z 3012/3112 32009KT P6SM SCT200
     FM301600 VRB05KT P6SM SCT200
     FM310300 33012G20KT P6SM SCT200
     FM310700 33009KT P6SM SCT200=



000
FTUS46 KSGX 301100
TAFONT
TAF
KONT 301123Z 3012/3118 VRB04KT P6SM SCT250
     FM302100 26012KT P6SM SCT200
     FM310400 VRB04KT P6SM SCT200=



000
FTUS46 KSGX 301100
TAFSAN
TAF
KSAN 301123Z 3012/3118 VRB04KT P6SM BKN009
     FM301500 VRB04KT P6SM SCT012 SCT200
     FM302000 27009KT P6SM SCT200
     FM310200 VRB04KT P6SM FEW010 SCT200
     FM310800 VRB04KT P6SM OVC010
     FM311600 VRB04KT P6SM SCT015=



000
FTUS46 KSGX 301100
TAFSNA
TAF
KSNA 301123Z 3012/3112 VRB04KT P6SM SCT200
     FM301900 23008KT P6SM SCT200
     FM310100 VRB04KT P6SM SCT200
     FM311100 VRB03KT P6SM BKN010=



000
FTUS46 KSGX 301100
TAFCRQ
TAF
KCRQ 301123Z 3012/3112 00000KT 6SM BR BKN005
     FM301500 VRB03KT P6SM SCT007
     FM301900 26008KT P6SM SCT200
     FM310100 VRB04KT P6SM FEW008 SCT200
     FM310800 VRB03KT P6SM BKN007=



000
FTUS46 KSGX 301000 AAB
TAFCRQ
TAF AMD
KCRQ 301000Z 3010/3106 VRB04KT P6SM FEW007 SCT200
      TEMPO 3010/3014 6SM BR BKN005
     FM301900 26008KT P6SM SCT200
     FM310100 VRB04KT P6SM FEW008 SCT200=



000
FTUS46 KSGX 301000 AAB
TAFSAN
TAF AMD
KSAN 301000Z 3010/3112 VRB04KT P6SM FEW010 SCT200
      TEMPO 3010/3014 BKN007
     FM302000 27009KT P6SM SCT200
     FM310200 VRB04KT P6SM FEW010 SCT200
     FM310600 VRB04KT P6SM OVC010=



000
FTUS46 KSGX 300800 AAA
TAFCRQ
TAF AMD
KCRQ 300826Z 3008/3106 VRB04KT P6SM FEW007 SCT200
      TEMPO 3012/3015 6SM BR BKN005
     FM301900 26008KT P6SM SCT200
     FM310100 VRB04KT P6SM FEW008 SCT200=



000
FTUS46 KSGX 300800 AAA
TAFSAN
TAF AMD
KSAN 300826Z 3008/3112 VRB04KT P6SM FEW010 SCT200
      TEMPO 3012/3015 BKN009
     FM302000 27009KT P6SM SCT200
     FM310200 VRB04KT P6SM FEW010 SCT200
     FM310600 VRB04KT P6SM OVC010=



000
FTUS46 KSGX 300500
TAFTRM
TAF
KTRM 300520Z 3006/3106 33012G20KT P6SM SCT200
     FM300800 33009KT P6SM SCT200
     FM301600 VRB05KT P6SM SCT200
     FM310300 33012G20KT P6SM SCT200=



000
FTUS46 KSGX 300500
TAFSNA
TAF
KSNA 300520Z 3006/3106 VRB04KT P6SM SCT200
     FM301900 23008KT P6SM SCT200
     FM310100 VRB04KT P6SM SCT200=



000
FTUS46 KSGX 300500
TAFSAN
TAF
KSAN 300520Z 3006/3112 VRB04KT P6SM FEW010 SCT200
     FM300900 VRB04KT P6SM BKN009
     FM301500 VRB04KT P6SM FEW010 SCT200
     FM302000 27009KT P6SM SCT200
     FM310200 VRB04KT P6SM FEW010 SCT200
     FM310600 VRB04KT P6SM OVC010=



000
FTUS46 KSGX 300500
TAFONT
TAF
KONT 300520Z 3006/3112 VRB04KT P6SM SCT200
     FM302100 26012KT P6SM SCT200
     FM310400 VRB04KT P6SM SCT200=



000
FTUS46 KSGX 300500
TAFPSP
TAF
KPSP 300520Z 3006/3106 VRB05KT P6SM SCT200
     FM302200 34015G23KT P6SM SCT200=



000
FTUS46 KSGX 300500
TAFCRQ
TAF
KCRQ 300520Z 3006/3106 VRB04KT P6SM FEW007 SCT200
     FM300800 VRB04KT 3SM HZ BKN005
     FM301500 VRB04KT P6SM FEW007 SCT200
     FM301900 26008KT P6SM SCT200
     FM310100 VRB04KT P6SM FEW008 SCT200=



000
FTUS46 KSGX 300200 AAA
TAFCRQ
TAF AMD
KCRQ 300252Z 3003/3024 VRB04KT P6SM FEW007 SCT200
     FM300700 VRB04KT 5SM HZ BKN006
     FM301500 VRB04KT P6SM FEW007 SCT200
     FM301900 26008KT P6SM SCT200=



000
FTUS46 KSGX 300200 AAA
TAFSAN
TAF AMD
KSAN 300247Z 3003/3106 VRB04KT P6SM FEW010 SCT200
     FM300900 VRB04KT P6SM BKN010
     FM301500 VRB04KT P6SM FEW010 SCT200
     FM302000 27009KT P6SM SCT200
     FM310200 VRB04KT P6SM FEW010 SCT200=



000
FTUS46 KSGX 292300
TAFSNA
TAF
KSNA 292336Z 3000/3024 23008KT P6SM BKN200
     FM300200 VRB04KT P6SM BKN200
     FM301900 23008KT P6SM SCT200=



000
FTUS46 KSGX 292300
TAFTRM
TAF
KTRM 292336Z 3000/3024 VRB05KT P6SM SCT200
     FM300200 33012G20KT P6SM SCT200
     FM300800 33010KT P6SM SCT200
     FM301600 VRB05KT P6SM SCT200=



000
FTUS46 KSGX 292300
TAFSAN
TAF
KSAN 292336Z 3000/3106 29009KT P6SM SCT200
     FM300200 VRB04KT P6SM FEW010 SCT200
     FM302000 27009KT P6SM SCT200
     FM310200 VRB04KT P6SM FEW010 SCT200=



000
FTUS46 KSGX 292300
TAFPSP
TAF
KPSP 292336Z 3000/3024 34013G23KT P6SM SCT200
     FM300600 VRB05KT P6SM SCT200
     FM302200 34013G23KT P6SM SCT200=



000
FTUS46 KSGX 292300
TAFCRQ
TAF
KCRQ 292336Z 3000/3024 VRB04KT P6SM FEW007 SCT200
     FM301900 26008KT P6SM SCT200=



000
FTUS46 KSGX 292300
TAFONT
TAF
KONT 292336Z 3000/3106 26012KT P6SM BKN200
     FM300400 VRB04KT P6SM BKN200
     FM302100 26012KT P6SM SCT200
     FM310400 VRB04KT P6SM SCT200=



000
FTUS46 KSGX 292200 AAA
TAFPSP
TAF AMD
KPSP 292218Z 2922/3018 34013G23KT P6SM SCT200
     FM300600 VRB05KT P6SM SCT250=



000
FTUS46 KSGX 292100 AAA
TAFSAN
TAF AMD
KSAN 292105Z 2921/3024 29009KT P6SM SCT200
     FM300200 VRB04KT P6SM SCT012 SCT200
     FM300900 VRB04KT P6SM BKN010
     FM301500 VRB04KT P6SM SCT015
     FM302000 26009KT P6SM FEW015=



000
FTUS46 KSGX 291700
TAFSNA
TAF
KSNA 291731Z 2918/3018 VRB04KT P6SM SCT250
     FM291900 23008KT P6SM SCT200
     FM300200 VRB04KT P6SM FEW010 SCT200
     FM301000 VRB03KT P6SM BKN010
     FM301500 VRB05KT P6SM FEW015=



000
FTUS46 KSGX 291700
TAFPSP
TAF
KPSP 291731Z 2918/3018 VRB05KT P6SM FEW200
     FM300000 32012G20KT P6SM SCT200
     FM300600 VRB05KT P6SM SCT250=



000
FTUS46 KSGX 291700
TAFSAN
TAF
KSAN 291731Z 2918/3024 VRB04KT P6SM FEW010 SCT250
     FM291900 29009KT P6SM SCT200
     FM300200 VRB04KT P6SM SCT012 SCT200
     FM300900 VRB04KT P6SM BKN010
     FM301500 VRB04KT P6SM SCT015
     FM302000 26009KT P6SM FEW015=



000
FTUS46 KSGX 291700
TAFCRQ
TAF
KCRQ 291731Z 2918/3018 VRB03KT P6SM FEW007 SCT250
     FM291900 25008KT P6SM SCT200
     FM300200 VRB04KT P6SM FEW008 SCT200
     FM300900 VRB03KT P6SM BKN007
     FM301500 VRB05KT P6SM FEW007=



000
FTUS46 KSGX 291700
TAFONT
TAF
KONT 291731Z 2918/3024 VRB04KT P6SM FEW150 SCT250
     FM292100 26012KT P6SM FEW080 SCT200
     FM300400 VRB04KT P6SM SCT250
     FM302100 26012KT P6SM SCT250=



000
FTUS46 KSGX 291700
TAFTRM
TAF
KTRM 291731Z 2918/3018 VRB05KT P6SM SCT200
     FM300200 33012G20KT P6SM SCT200
     FM300800 33010KT P6SM SCT250=



000
FTUS46 KSGX 291400 AAA
TAFSAN
TAF AMD
KSAN 291448Z 2915/3018 VRB04KT P6SM FEW010 SCT250
     FM291900 29009KT P6SM SCT200
     FM300200 VRB04KT P6SM SCT012 SCT200
     FM300800 VRB04KT P6SM BKN010
     FM301600 VRB04KT P6SM SCT015=



000
FTUS46 KSGX 291100
TAFONT
TAF
KONT 291120Z 2912/3018 VRB04KT P6SM FEW150 SCT250
     FM292100 26012KT P6SM FEW080 SCT200
     FM300400 VRB04KT P6SM SCT250=



000
FTUS46 KSGX 291100
TAFTRM
TAF
KTRM 291120Z 2912/3012 32008KT P6SM SCT200
     FM291400 VRB05KT P6SM SCT200
     FM300200 33012G20KT P6SM SCT200
     FM300800 33010KT P6SM SCT250=



000
FTUS46 KSGX 291100
TAFPSP
TAF
KPSP 291120Z 2912/3012 VRB05KT P6SM FEW200
     FM300000 32012G20KT P6SM SCT200
     FM300600 VRB05KT P6SM SCT250=



000
FTUS46 KSGX 291100
TAFSNA
TAF
KSNA 291120Z 2912/3012 VRB04KT P6SM SCT250
     FM291900 23008KT P6SM SCT200
     FM300200 VRB04KT P6SM FEW010 SCT200
     FM301100 VRB03KT P6SM BKN010=



000
FTUS46 KSGX 291100
TAFCRQ
TAF
KCRQ 291120Z 2912/3012 VRB03KT P6SM FEW007 SCT250
     FM291900 25008KT P6SM SCT200
     FM300200 VRB04KT P6SM FEW008 SCT200
     FM300700 VRB03KT P6SM BKN007=



000
FTUS46 KSGX 291100
TAFSAN
TAF
KSAN 291120Z 2912/3018 VRB04KT P6SM FEW010 SCT250
     FM291900 29009KT P6SM SCT200
     FM300200 VRB04KT P6SM SCT012 SCT200
     FM300800 VRB04KT P6SM BKN010
     FM301600 VRB04KT P6SM SCT015=



000
FTUS46 KSGX 290900 CCA
TAFCRQ
TAF COR
KCRQ 290942Z 2910/3006 VRB04KT P6SM FEW009 SCT200
      TEMPO 2912/2915 BKN007
     FM291900 26008KT P6SM SCT200
     FM300000 VRB04KT P6SM FEW008 SCT200=



000
FTUS46 KSGX 290900 AAA
TAFCRQ
TAF AMD
KCRQ 290939Z 2910/3006 VRB04KT P6SM FEW009 SCT200
      TEMPO 2912/2915 BKN007
     FM291500 VRB04KT P6SM FEW007 SCT200
     FM291900 26008KT P6SM SCT200
     FM300000 VRB04KT P6SM FEW008 SCT200=



000
FTUS46 KSGX 290900 AAA
TAFSAN
TAF AMD
KSAN 290906Z 2909/3012 VRB04KT P6SM FEW010 SCT200
      TEMPO 2911/2915 BKN010
     FM291900 29009KT P6SM SCT200
     FM300200 VRB04KT P6SM SCT010 SCT200
     FM300700 VRB04KT P6SM BKN010=



000
FTUS46 KSGX 290500
TAFPSP
TAF
KPSP 290520Z 2906/3006 32011KT P6SM SCT200
     FM290700 VRB05KT P6SM SCT200
     FM300000 32013G20KT P6SM SCT200=



000
FTUS46 KSGX 290500
TAFTRM
TAF
KTRM 290520Z 2906/3006 32010KT P6SM SCT200
     FM291000 VRB05KT P6SM SCT200
     FM300400 32010KT P6SM SCT200=



000
FTUS46 KSGX 290500
TAFSNA
TAF
KSNA 290520Z 2906/3006 VRB04KT P6SM SCT200
     FM291900 23008KT P6SM SCT200
     FM300200 VRB04KT P6SM SCT200=



000
FTUS46 KSGX 290500
TAFONT
TAF
KONT 290520Z 2906/3012 VRB04KT P6SM SCT200
     FM292100 26012KT P6SM SCT200
     FM300400 VRB04KT P6SM SCT200=



000
FTUS46 KSGX 290500
TAFCRQ
TAF
KCRQ 290520Z 2906/3006 VRB04KT P6SM SCT200
     FM291000 VRB04KT 5SM BR BKN007
     FM291500 VRB04KT P6SM FEW007 SCT200
     FM291900 26008KT P6SM SCT200
     FM300000 VRB04KT P6SM FEW008 SCT200=



000
FTUS46 KSGX 290500
TAFSAN
TAF
KSAN 290520Z 2906/3012 VRB04KT P6SM SCT010 SCT200
     FM291100 VRB04KT P6SM BKN009
     FM291500 VRB04KT P6SM SCT010 SCT200
     FM291900 29009KT P6SM SCT200
     FM300200 VRB04KT P6SM SCT010 SCT200
     FM300700 VRB04KT P6SM BKN010=



000
FTUS46 KSGX 290300 AAA
TAFSAN
TAF AMD
KSAN 290304Z 2903/3006 VRB04KT P6SM SCT010 SCT200
     FM291100 VRB04KT P6SM BKN009
     FM291500 VRB04KT P6SM SCT010 SCT200
     FM291900 29009KT P6SM SCT200
     FM300200 VRB04KT P6SM SCT010 SCT200=



000
FTUS46 KSGX 282300
TAFTRM
TAF
KTRM 282328Z 2900/2924 VRB05KT P6SM BKN150
     FM290500 32011KT P6SM SCT200
     FM291000 VRB05KT P6SM SCT200=



000
FTUS46 KSGX 282300
TAFPSP
TAF
KPSP 282328Z 2900/2924 VRB05KT P6SM SCT080 BKN150
     FM290200 32011KT P6SM SCT200
     FM290600 VRB05KT P6SM SCT200=



000
FTUS46 KSGX 282300
TAFSNA
TAF
KSNA 282328Z 2900/2924 23008KT P6SM SCT100 SCT250
     FM290300 VRB04KT P6SM SCT200
     FM291900 23008KT P6SM SCT200=



000
FTUS46 KSGX 282300
TAFONT
TAF
KONT 282328Z 2900/3006 26012KT P6SM SCT150
     FM290400 VRB04KT P6SM SCT200
     FM292100 26012KT P6SM SCT200
     FM300400 VRB04KT P6SM SCT200=



000
FTUS46 KSGX 282300
TAFSAN
TAF
KSAN 282328Z 2900/3006 28010KT P6SM SCT100 SCT250
     FM290200 VRB04KT P6SM SCT010 SCT200
     FM291100 VRB04KT P6SM BKN009
     FM291500 VRB04KT P6SM SCT010 SCT200
     FM291900 29009KT P6SM SCT200
     FM300200 VRB04KT P6SM SCT010 SCT200=



000
FTUS46 KSGX 282300
TAFCRQ
TAF
KCRQ 282328Z 2900/2924 26008KT P6SM SCT100 SCT250
     FM290100 VRB04KT P6SM FEW008 SCT200
     FM291000 VRB04KT 5SM BR BKN007
     FM291500 VRB04KT P6SM FEW007 SCT200
     FM291900 26008KT P6SM SCT200=



000
FTUS46 KSGX 282000 AAA
TAFSAN
TAF AMD
KSAN 282053Z 2821/2924 27009KT P6SM SCT100 SCT250
     FM290200 VRB04KT P6SM SCT015 SCT250
      TEMPO 2909/2913 BKN011
     FM291800 29009KT P6SM FEW015=



000
FTUS46 KSGX 281700
TAFPSP
TAF
KPSP 281731Z 2818/2918 VRB05KT P6SM BKN150
     FM281900 12007KT P6SM VCTS SCT080CB BKN150
     FM290200 32011KT P6SM FEW080 SCT200
     FM290600 VRB05KT P6SM SCT250=



000
FTUS46 KSGX 281700
TAFCRQ
TAF
KCRQ 281731Z 2818/2918 VRB03KT P6SM VCSH FEW007 BKN100
     FM281900 25008KT P6SM SCT100 SCT250
     FM290300 VRB03KT P6SM SCT009 SCT250
      TEMPO 2909/2913 BKN009=



000
FTUS46 KSGX 281700
TAFONT
TAF
KONT 281731Z 2818/2924 26005KT P6SM VCSH SCT150 BKN200
     FM282000 25012KT P6SM SCT080 SCT150
     FM290400 25006KT P6SM SCT250
     FM292100 26011KT P6SM SCT250=



000
FTUS46 KSGX 281700
TAFSNA
TAF
KSNA 281731Z 2818/2918 VRB03KT P6SM VCSH SCT150 BKN250
     FM282000 23008KT P6SM SCT100 SCT250
     FM290300 VRB03KT P6SM SCT010 SCT250=



000
FTUS46 KSGX 281700
TAFTRM
TAF
KTRM 281731Z 2818/2918 VRB05KT P6SM BKN150
     FM281900 14007KT P6SM VCTS SCT080CB BKN150
     FM290500 32011KT P6SM FEW080 SCT200
     FM291000 VRB05KT P6SM SCT250=



000
FTUS46 KSGX 281700
TAFSAN
TAF
KSAN 281731Z 2818/2924 VRB04KT P6SM VCSH SCT010 SCT100 BKN250
     FM281900 27009KT P6SM SCT100 SCT250
     FM290200 VRB04KT P6SM SCT015 SCT250
      TEMPO 2909/2913 BKN011
     FM291800 29009KT P6SM FEW015=



000
FTUS46 KSGX 281500 AAA
TAFCRQ
TAF AMD
KCRQ 281500Z 2815/2912 VRB03KT P6SM VCSH FEW007 BKN100
     FM281900 25008KT P6SM SCT100 SCT250
     FM290300 VRB03KT P6SM SCT009 SCT250
     FM290800 VRB03KT P6SM BKN009=



000
FTUS46 KSGX 281400 AAA
TAFSAN
TAF AMD
KSAN 281441Z 2815/2918 VRB04KT P6SM VCSH SCT010 SCT100 BKN250
     FM281900 27009KT P6SM SCT100 SCT250
     FM290200 VRB04KT P6SM SCT015 SCT250
     FM290900 VRB03KT P6SM BKN011
     FM291600 VRB04KT P6SM SCT015=



000
FTUS46 KSGX 281100
TAFSAN
TAF
KSAN 281120Z 2812/2918 VRB04KT P6SM VCSH SCT010 SCT100 BKN250
      TEMPO 2812/2816 BKN010
     FM281900 27009KT P6SM SCT100 SCT250
     FM290200 VRB04KT P6SM SCT015 SCT250
     FM290900 VRB03KT P6SM BKN011
     FM291600 VRB04KT P6SM SCT015=



000
FTUS46 KSGX 281100
TAFPSP
TAF
KPSP 281120Z 2812/2912 VRB05KT P6SM BKN150
     FM281900 12007KT P6SM VCTS SCT080CB BKN150
     FM290200 32011KT P6SM FEW080 SCT200
     FM290700 VRB05KT P6SM SCT250=



000
FTUS46 KSGX 281100
TAFTRM
TAF
KTRM 281120Z 2812/2912 VRB05KT P6SM BKN150
     FM281900 14007KT P6SM VCTS SCT080CB BKN150
     FM290300 32011KT P6SM FEW080 SCT200
     FM291000 VRB05KT P6SM SCT250=



000
FTUS46 KSGX 281100
TAFSNA
TAF
KSNA 281120Z 2812/2912 VRB03KT P6SM VCTS SCT100CB BKN200
     FM281500 VRB03KT P6SM VCSH SCT150 BKN250
     FM282000 23008KT P6SM SCT100 SCT250
     FM290300 VRB03KT P6SM SCT010 SCT250=



000
FTUS46 KSGX 281100
TAFONT
TAF
KONT 281120Z 2812/2918 27006KT P6SM VCTS SCT100CB BKN150
     FM281400 26005KT P6SM VCSH SCT150 BKN200
     FM282000 25012KT P6SM SCT080 SCT150
     FM290400 25006KT P6SM SCT250=



000
FTUS46 KSGX 281100
TAFCRQ
TAF
KCRQ 281120Z 2812/2912 VRB03KT P6SM VCSH FEW007 BKN100
      TEMPO 2812/2816 BKN007
     FM281900 25008KT P6SM SCT100 SCT250
     FM290300 VRB03KT P6SM SCT009 SCT250
     FM290800 VRB03KT P6SM BKN009=



000
FTUS46 KSGX 280900 AAB
TAFCRQ
TAF AMD
KCRQ 280906Z 2809/2906 VRB03KT P6SM VCSH FEW005 SCT100 BKN200
      TEMPO 2809/2812 BKN005
     FM281200 VRB03KT P6SM BKN007 BKN200
     FM281600 VRB05KT P6SM SCT010 SCT150
     FM282000 26009KT P6SM BKN100
     FM290300 VRB03KT P6SM BKN009=



000
FTUS46 KSGX 280800 AAA
TAFSAN
TAF AMD
KSAN 280858Z 2809/2912 VRB04KT P6SM SCT010 BKN200
      TEMPO 2810/2814 BKN010
     FM281900 27009KT P6SM FEW015 SCT200
     FM290200 VRB04KT P6SM SCT012
     FM290600 VRB03KT P6SM BKN012=



000
FTUS46 KSGX 280700 AAA
TAFCRQ
TAF AMD
KCRQ 280706Z 2807/2906 VRB03KT P6SM VCSH FEW009 SCT100 BKN200
      TEMPO 2810/2814 BKN008
     FM281600 VRB05KT P6SM SCT010 BKN080
     FM282000 26009KT P6SM BKN100
     FM290300 VRB03KT P6SM BKN009=



000
FTUS46 KSGX 280600 AAA
TAFSNA
TAF AMD
KSNA 280655Z 2807/2906 VRB05KT P6SM VCSH FEW011 SCT100 BKN250
     FM281200 VRB03KT P6SM SCT010 SCT150 BKN250
     FM282000 26008KT P6SM BKN100=



000
FTUS46 KSGX 280600 AAA
TAFONT
TAF AMD
KONT 280650Z 2807/2912 26007KT P6SM -SHRA SCT080 BKN150 BKN250
     FM281000 VRB05KT P6SM FEW100 BKN150 BKN250
     FM282100 25013KT P6SM BKN100
     FM290400 25006KT P6SM SCT150=



000
FTUS46 KSGX 280500
TAFSNA
TAF
KSNA 280520Z 2806/2906 22005KT P6SM FEW060 BKN150 BKN250
     FM280700 VRB05KT P6SM SCT060 BKN100
     FM282000 26008KT P6SM BKN100=



000
FTUS46 KSGX 280500
TAFPSP
TAF
KPSP 280520Z 2806/2906 00000KT P6SM BKN180
     FM281900 12007KT P6SM VCTS SCT080CB BKN150
     FM290200 32008KT P6SM SCT080=



000
FTUS46 KSGX 280500
TAFCRQ
TAF
KCRQ 280520Z 2806/2906 30003KT P6SM SCT009
      TEMPO 2806/2810 BKN009
     FM281000 VRB03KT 6SM BR BKN008
     FM281600 VRB05KT P6SM SCT010 BKN080
     FM282000 26009KT P6SM BKN100
     FM290300 VRB03KT P6SM BKN009=



000
FTUS46 KSGX 280500
TAFTRM
TAF
KTRM 280520Z 2806/2906 12004KT P6SM BKN180
     FM281900 13007KT P6SM VCTS SCT080CB BKN150
     FM290300 32007KT P6SM SCT080=



000
FTUS46 KSGX 280500
TAFSAN
TAF
KSAN 280520Z 2806/2912 32003KT P6SM SCT012 SCT060 BKN250
     FM281000 VRB03KT P6SM BKN010
     FM281600 VRB04KT P6SM SCT012 SCT200
     FM281900 27009KT P6SM FEW015 SCT200
     FM290200 VRB04KT P6SM SCT012
     FM290600 VRB03KT P6SM BKN012=



000
FTUS46 KSGX 280500
TAFONT
TAF
KONT 280520Z 2806/2912 26007KT P6SM SCT100 BKN180 BKN250
     FM282100 25013KT P6SM BKN100
     FM290400 25006KT P6SM SCT150=



000
FTUS46 KSGX 280300 AAA
TAFCRQ
TAF AMD
KCRQ 280350Z 2804/2824 00000KT P6SM BKN009
     FM281000 VRB03KT 6SM BR BKN008
     FM281600 VRB05KT P6SM SCT010 BKN080
     FM282000 26009KT P6SM BKN100=



000
FTUS46 KSGX 280300 AAA
TAFSAN
TAF AMD
KSAN 280300Z 2803/2906 29006KT P6SM FEW015 SCT060 BKN250
     FM281100 VRB03KT P6SM BKN010
     FM281600 VRB04KT P6SM SCT012 SCT200
     FM281900 27009KT P6SM FEW015 SCT200
     FM290200 VRB04KT P6SM SCT015=



    US Dept of Commerce
    National Oceanic and Atmospheric Administration
    National Weather Service
    1325 East West Highway
    Silver Spring, MD 20910
    Page Author: NWS Internet Services Team
Disclaimer
Information Quality
Credits
Glossary
Privacy Policy
Freedom of Information Act (FOIA)
About Us
Career Opportunities